createdAt,value
2018-07-15T00:01:30.437Z,101993.88
2018-07-15T00:03:58.178Z,101989.48
2018-07-15T00:06:25.939Z,101983.80
2018-07-15T00:08:53.902Z,101985.98
2018-07-15T00:11:21.617Z,101982.09
2018-07-15T00:13:49.558Z,101976.81
2018-07-15T00:16:17.617Z,101971.09
2018-07-15T00:18:45.370Z,101971.12
2018-07-15T00:21:13.073Z,101969.39
2018-07-15T00:23:41.834Z,101975.55
2018-07-15T00:26:09.537Z,101979.53
2018-07-15T00:28:37.268Z,101980.46
2018-07-15T00:31:05.318Z,101976.94
2018-07-15T00:33:33.352Z,101976.53
2018-07-15T00:36:01.463Z,101978.28
2018-07-15T00:38:29.136Z,101973.07
2018-07-15T00:40:56.835Z,101976.14
2018-07-15T00:43:24.902Z,101970.89
2018-07-15T00:45:52.855Z,101976.17
2018-07-15T00:48:20.942Z,101974.02
2018-07-15T00:50:48.642Z,101975.78
2018-07-15T00:53:16.418Z,101981.94
2018-07-15T00:55:44.480Z,101977.53
2018-07-15T00:58:12.411Z,101974.10
2018-07-15T01:00:45.786Z,101966.19
2018-07-15T01:03:13.933Z,101970.61
2018-07-15T01:05:41.967Z,101970.61
2018-07-15T01:08:09.661Z,101971.05
2018-07-15T01:10:37.638Z,101975.89
2018-07-15T01:13:05.385Z,101972.81
2018-07-15T01:15:40.001Z,101975.03
2018-07-15T01:18:07.769Z,101975.91
2018-07-15T01:20:35.489Z,101977.69
2018-07-15T01:23:03.406Z,101981.27
2018-07-15T01:25:31.561Z,101985.69
2018-07-15T01:28:00.158Z,101983.90
2018-07-15T01:30:27.861Z,101976.89
2018-07-15T01:32:55.692Z,101908.69
2018-07-15T01:35:24.015Z,101976.50
2018-07-15T01:37:51.985Z,101980.89
2018-07-15T01:40:19.717Z,101979.99
2018-07-15T01:42:47.696Z,101976.09
2018-07-15T01:45:16.099Z,101984.00
2018-07-15T01:47:43.767Z,101979.19
2018-07-15T01:50:11.821Z,101976.14
2018-07-15T01:52:39.874Z,101979.68
2018-07-15T01:55:07.930Z,101972.63
2018-07-15T01:57:35.639Z,101980.98
2018-07-15T02:00:03.718Z,101977.89
2018-07-15T02:02:31.677Z,101973.11
2018-07-15T02:04:59.494Z,101985.41
2018-07-15T02:07:27.212Z,101978.41
2018-07-15T02:09:55.194Z,101974.89
2018-07-15T02:12:23.229Z,101971.41
2018-07-15T02:14:50.924Z,101972.75
2018-07-15T02:17:19.736Z,101975.80
2018-07-15T02:19:47.405Z,101971.43
2018-07-15T02:22:15.351Z,101973.20
2018-07-15T02:24:43.405Z,101970.62
2018-07-15T02:27:11.507Z,101973.27
2018-07-15T02:29:39.256Z,101970.18
2018-07-15T02:32:07.221Z,101974.61
2018-07-15T02:34:34.978Z,101972.84
2018-07-15T02:37:03.159Z,101969.36
2018-07-15T02:39:31.090Z,101971.11
2018-07-15T02:41:59.220Z,101971.11
2018-07-15T02:44:26.978Z,101979.92
2018-07-15T02:46:54.654Z,101975.55
2018-07-15T02:49:22.401Z,101979.13
2018-07-15T02:51:50.151Z,101979.55
2018-07-15T02:54:17.952Z,101976.92
2018-07-15T02:56:46.021Z,101965.96
2018-07-15T02:59:13.736Z,101968.59
2018-07-15T03:01:41.554Z,101968.19
2018-07-15T03:04:09.445Z,101964.69
2018-07-15T03:06:37.569Z,101962.91
2018-07-15T03:09:07.168Z,101961.62
2018-07-15T03:11:34.930Z,101961.62
2018-07-15T03:14:02.604Z,101959.41
2018-07-15T03:16:30.640Z,101955.48
2018-07-15T03:18:58.701Z,101959.46
2018-07-15T03:21:26.755Z,101952.88
2018-07-15T03:23:54.429Z,101947.16
2018-07-15T03:26:23.021Z,101950.73
2018-07-15T03:28:51.049Z,101951.61
2018-07-15T03:31:19.076Z,101952.88
2018-07-15T03:33:47.134Z,101952.88
2018-07-15T03:36:14.828Z,101947.59
2018-07-15T03:38:43.166Z,101950.69
2018-07-15T03:41:11.133Z,101954.63
2018-07-15T03:43:39.317Z,101955.51
2018-07-15T03:46:07.047Z,101957.73
2018-07-15T03:48:35.182Z,101959.05
2018-07-15T03:51:02.896Z,101953.34
2018-07-15T03:53:30.942Z,101962.56
2018-07-15T03:55:58.697Z,101965.18
2018-07-15T03:58:26.452Z,101965.18
2018-07-15T04:00:54.574Z,101965.59
2018-07-15T04:03:26.905Z,101969.11
2018-07-15T04:05:54.624Z,101962.55
2018-07-15T04:08:22.846Z,101965.18
2018-07-15T04:10:51.086Z,101963.86
2018-07-15T04:13:18.803Z,101961.66
2018-07-15T04:15:46.538Z,101967.81
2018-07-15T04:18:14.252Z,101973.09
2018-07-15T04:20:41.967Z,101969.57
2018-07-15T04:23:10.070Z,101972.62
2018-07-15T04:25:38.167Z,101971.30
2018-07-15T04:28:06.361Z,101970.86
2018-07-15T04:30:34.043Z,101976.14
2018-07-15T04:33:02.050Z,101966.47
2018-07-15T04:35:30.348Z,101936.92
2018-07-15T04:37:58.517Z,101972.16
2018-07-15T04:40:26.306Z,101970.84
2018-07-15T04:42:54.780Z,101969.52
2018-07-15T04:45:22.771Z,101968.62
2018-07-15T04:47:50.914Z,101970.82
2018-07-15T04:50:18.625Z,101966.86
2018-07-15T04:52:46.620Z,101968.13
2018-07-15T04:55:14.402Z,101972.53
2018-07-15T04:57:42.085Z,101970.33
2018-07-15T05:00:10.686Z,101968.11
2018-07-15T05:02:38.899Z,101966.79
2018-07-15T05:05:06.604Z,101976.88
2018-07-15T05:07:34.398Z,101975.53
2018-07-15T05:10:02.744Z,101971.11
2018-07-15T05:12:30.700Z,101968.88
2018-07-15T05:14:58.711Z,101967.11
2018-07-15T05:17:26.424Z,101972.36
2018-07-15T05:19:54.460Z,101967.52
2018-07-15T05:22:22.172Z,101969.70
2018-07-15T05:24:49.872Z,101970.52
2018-07-15T05:27:18.215Z,101974.48
2018-07-15T05:29:46.255Z,101977.98
2018-07-15T05:32:14.010Z,101970.06
2018-07-15T05:34:42.120Z,101971.38
2018-07-15T05:37:10.148Z,101969.96
2018-07-15T05:39:38.263Z,101977.44
2018-07-15T05:42:06.284Z,101975.64
2018-07-15T05:44:34.279Z,101978.26
2018-07-15T05:47:02.465Z,101982.22
2018-07-15T05:49:30.189Z,101976.03
2018-07-15T05:51:57.932Z,101974.69
2018-07-15T05:54:25.591Z,101982.98
2018-07-15T05:56:53.328Z,101982.13
2018-07-15T05:59:21.385Z,101980.74
2018-07-15T06:01:49.089Z,101982.94
2018-07-15T06:04:17.660Z,101987.76
2018-07-15T06:06:45.381Z,101985.12
2018-07-15T06:09:13.363Z,101989.48
2018-07-15T06:11:41.116Z,101987.27
2018-07-15T06:14:09.067Z,101993.36
2018-07-15T06:16:37.386Z,101998.64
2018-07-15T06:19:05.075Z,101995.98
2018-07-15T06:21:33.055Z,101994.22
2018-07-15T06:24:00.999Z,101994.61
2018-07-15T06:26:29.017Z,101994.59
2018-07-15T06:28:56.705Z,101995.43
2018-07-15T06:31:24.468Z,101985.73
2018-07-15T06:33:52.144Z,101989.67
2018-07-15T06:36:19.837Z,101996.67
2018-07-15T06:38:47.629Z,101992.72
2018-07-15T06:41:15.464Z,101991.38
2018-07-15T06:43:43.129Z,101997.04
2018-07-15T06:46:11.021Z,101987.80
2018-07-15T06:48:39.341Z,101992.59
2018-07-15T06:51:07.676Z,101988.60
2018-07-15T06:53:35.499Z,101985.91
2018-07-15T06:56:03.331Z,101989.84
2018-07-15T06:58:31.253Z,101982.34
2018-07-15T07:00:59.203Z,101989.34
2018-07-15T07:03:27.439Z,101995.02
2018-07-15T07:05:55.692Z,101993.66
2018-07-15T07:08:23.683Z,101998.52
2018-07-15T07:10:51.434Z,101996.70
2018-07-15T07:13:19.559Z,101993.15
2018-07-15T07:15:47.234Z,101999.28
2018-07-15T07:18:15.892Z,101998.38
2018-07-15T07:20:44.021Z,102000.08
2018-07-15T07:23:12.258Z,101998.73
2018-07-15T07:25:39.927Z,101994.27
2018-07-15T07:28:07.635Z,101991.63
2018-07-15T07:30:35.597Z,101996.86
2018-07-15T07:33:03.373Z,101992.44
2018-07-15T07:35:31.151Z,101988.00
2018-07-15T07:37:59.092Z,101986.66
2018-07-15T07:40:26.804Z,101996.28
2018-07-15T07:42:54.801Z,101991.38
2018-07-15T07:45:22.876Z,101992.67
2018-07-15T07:47:50.849Z,101989.13
2018-07-15T07:50:18.594Z,101988.63
2018-07-15T07:52:46.615Z,101994.70
2018-07-15T07:55:14.271Z,101993.35
2018-07-15T07:57:42.224Z,101991.09
2018-07-15T08:00:10.424Z,101991.88
2018-07-15T08:02:38.133Z,101987.45
2018-07-15T08:05:06.110Z,101993.14
2018-07-15T08:07:34.173Z,101984.72
2018-07-15T08:10:02.276Z,101974.16
2018-07-15T08:12:30.065Z,101982.05
2018-07-15T08:14:58.257Z,101983.34
2018-07-15T08:17:25.962Z,101982.43
2018-07-15T08:19:53.685Z,101977.59
2018-07-15T08:22:21.390Z,101977.97
2018-07-15T08:24:49.052Z,101981.87
2018-07-15T08:27:16.731Z,101975.70
2018-07-15T08:29:55.634Z,101983.53
2018-07-15T08:32:23.286Z,101980.42
2018-07-15T08:34:50.987Z,101975.99
2018-07-15T08:37:18.707Z,101977.72
2018-07-15T08:39:46.426Z,101981.59
2018-07-15T08:42:14.396Z,101978.95
2018-07-15T08:44:42.335Z,101984.17
2018-07-15T08:49:52.620Z,101976.22
2018-07-15T08:52:20.556Z,101970.94
2018-07-15T08:54:48.204Z,101972.63
2018-07-15T08:57:15.938Z,101971.69
2018-07-15T08:59:43.609Z,101974.23
2018-07-15T09:02:11.251Z,101966.30
2018-07-15T09:04:39.364Z,101966.23
2018-07-15T09:07:07.143Z,101965.33
2018-07-15T09:09:35.109Z,101962.62
2018-07-15T09:12:03.627Z,101970.92
2018-07-15T09:14:31.727Z,101966.01
2018-07-15T09:16:59.413Z,101967.67
2018-07-15T09:19:27.117Z,101967.16
2018-07-15T09:21:55.133Z,101976.34
2018-07-15T09:24:22.781Z,101978.14
2018-07-15T09:26:50.653Z,101974.59
2018-07-15T09:29:18.358Z,101983.80
2018-07-15T09:31:46.032Z,101977.67
2018-07-15T09:34:14.081Z,101981.20
2018-07-15T09:36:42.037Z,101976.69
2018-07-15T09:39:10.615Z,101974.86
2018-07-15T09:41:38.364Z,101973.88
2018-07-15T09:44:06.074Z,101967.47
2018-07-15T09:46:33.830Z,101971.26
2018-07-15T09:49:01.520Z,101965.49
2018-07-15T09:51:29.518Z,101969.05
2018-07-15T09:53:57.469Z,101971.70
2018-07-15T09:56:25.204Z,101970.72
2018-07-15T09:58:52.889Z,101968.07
2018-07-15T10:01:20.581Z,101967.08
2018-07-15T10:03:48.546Z,101967.59
2018-07-15T10:06:16.253Z,101964.14
2018-07-15T10:08:43.984Z,101964.17
2018-07-15T10:11:11.723Z,101959.29
2018-07-15T10:13:39.622Z,101959.63
2018-07-15T10:16:07.664Z,101960.58
2018-07-15T10:18:35.754Z,101962.89
2018-07-15T10:21:03.468Z,101961.53
2018-07-15T10:23:31.185Z,101961.45
2018-07-15T10:25:58.923Z,101957.42
2018-07-15T10:28:26.943Z,101949.38
2018-07-15T10:30:54.938Z,101948.39
2018-07-15T10:33:23.465Z,101948.34
2018-07-15T10:35:51.114Z,101948.75
2018-07-15T10:38:19.195Z,101947.66
2018-07-15T10:40:47.138Z,101936.66
2018-07-15T10:43:14.910Z,101940.23
2018-07-15T10:45:42.566Z,101936.34
2018-07-15T10:48:10.829Z,101933.84
2018-07-15T10:50:38.585Z,101932.96
2018-07-15T10:53:06.356Z,101932.08
2018-07-15T10:55:34.775Z,101933.36
2018-07-15T10:58:02.461Z,101928.41
2018-07-15T11:00:30.168Z,101925.09
2018-07-15T11:02:58.154Z,101934.97
2018-07-15T11:05:25.827Z,101929.53
2018-07-15T11:07:53.933Z,101930.70
2018-07-15T11:10:21.736Z,101926.05
2018-07-15T11:12:49.418Z,101929.02
2018-07-15T11:15:17.097Z,101928.18
2018-07-15T11:17:44.776Z,101927.38
2018-07-15T11:20:12.418Z,101921.24
2018-07-15T11:22:40.228Z,101917.03
2018-07-15T11:25:08.460Z,101919.92
2018-07-15T11:27:36.377Z,101924.17
2018-07-15T11:30:04.085Z,101921.01
2018-07-15T11:32:32.153Z,101918.80
2018-07-15T11:34:59.877Z,101927.10
2018-07-15T11:37:27.963Z,101922.57
2018-07-15T11:39:55.985Z,101921.60
2018-07-15T11:42:23.916Z,101921.13
2018-07-15T11:44:51.542Z,101918.43
2018-07-15T11:47:19.272Z,101913.97
2018-07-15T11:49:46.880Z,101920.08
2018-07-15T11:52:14.638Z,101916.06
2018-07-15T11:54:42.824Z,101919.70
2018-07-15T11:57:11.021Z,101910.66
2018-07-15T11:59:38.963Z,101911.37
2018-07-15T12:02:06.655Z,101906.88
2018-07-15T12:04:34.256Z,101906.03
2018-07-15T12:07:02.212Z,101903.82
2018-07-15T12:09:30.142Z,101906.07
2018-07-15T12:11:58.086Z,101904.66
2018-07-15T12:14:26.286Z,101900.68
2018-07-15T12:16:54.056Z,101898.52
2018-07-15T12:19:22.353Z,101904.34
2018-07-15T12:21:50.026Z,101896.93
2018-07-15T12:24:17.721Z,101894.76
2018-07-15T12:26:45.371Z,101894.64
2018-07-15T12:29:13.365Z,101893.44
2018-07-15T12:31:41.045Z,101894.33
2018-07-15T12:34:08.901Z,101889.34
2018-07-15T12:36:36.608Z,101886.20
2018-07-15T12:39:05.747Z,101882.98
2018-07-15T12:41:33.911Z,101881.52
2018-07-15T12:44:01.664Z,101875.70
2018-07-15T12:46:29.571Z,101872.12
2018-07-15T12:48:57.990Z,101768.06
2018-07-15T12:51:25.702Z,101876.72
2018-07-15T12:53:53.627Z,101870.92
2018-07-15T12:56:21.672Z,101868.89
2018-07-15T12:58:49.740Z,101872.91
2018-07-15T13:01:17.420Z,101864.44
2018-07-15T13:03:45.349Z,101863.11
2018-07-15T13:06:13.059Z,101852.06
2018-07-15T13:08:41.050Z,101851.58
2018-07-15T13:11:08.892Z,101843.98
2018-07-15T13:13:36.641Z,101851.94
2018-07-15T13:16:04.524Z,101846.77
2018-07-15T13:18:32.197Z,101844.91
2018-07-15T13:20:59.832Z,101847.56
2018-07-15T13:23:27.765Z,101840.62
2018-07-15T13:25:55.446Z,101837.77
2018-07-15T13:28:23.058Z,101828.36
2018-07-15T13:30:51.082Z,101830.37
2018-07-15T13:33:18.756Z,101824.88
2018-07-15T13:35:46.753Z,101828.28
2018-07-15T13:38:14.414Z,101827.35
2018-07-15T13:40:42.086Z,101826.45
2018-07-15T13:43:09.723Z,101822.88
2018-07-15T13:45:37.729Z,101821.50
2018-07-15T13:48:05.389Z,101811.73
2018-07-15T13:50:33.020Z,101818.55
2018-07-15T13:53:01.044Z,101813.06
2018-07-15T13:55:28.700Z,101811.64
2018-07-15T13:57:56.340Z,101815.66
2018-07-15T14:00:24.453Z,101807.66
2018-07-15T14:02:52.385Z,101808.05
2018-07-15T14:05:20.395Z,101799.17
2018-07-15T14:07:48.083Z,101800.50
2018-07-15T14:10:15.745Z,101804.91
2018-07-15T14:12:43.390Z,101796.81
2018-07-15T14:15:11.093Z,101798.97
2018-07-15T14:17:39.329Z,101791.41
2018-07-15T14:20:07.465Z,101803.69
2018-07-15T14:22:35.256Z,101795.68
2018-07-15T14:25:03.495Z,101800.74
2018-07-15T14:27:31.765Z,101790.61
2018-07-15T14:29:59.473Z,101790.58
2018-07-15T14:32:27.442Z,101789.86
2018-07-15T14:34:55.120Z,101786.05
2018-07-15T14:37:23.138Z,101781.20
2018-07-15T14:39:51.410Z,101790.37
2018-07-15T14:42:20.308Z,101784.34
2018-07-15T14:44:48.221Z,101783.61
2018-07-15T14:47:15.874Z,101783.16
2018-07-15T14:49:43.542Z,101781.75
2018-07-15T14:52:11.609Z,101781.45
2018-07-15T14:54:39.501Z,101772.73
2018-07-15T14:57:07.194Z,101779.30
2018-07-15T14:59:34.908Z,101774.95
2018-07-15T15:02:02.601Z,101769.98
2018-07-15T15:04:30.300Z,101776.86
2018-07-15T15:06:58.312Z,101777.67
2018-07-15T15:09:26.443Z,101781.75
2018-07-15T15:11:54.338Z,101775.78
2018-07-15T15:14:22.021Z,101775.02
2018-07-15T15:16:49.967Z,101774.16
2018-07-15T15:19:17.665Z,101764.66
2018-07-15T15:21:45.385Z,101764.05
2018-07-15T15:24:13.432Z,101768.15
2018-07-15T15:26:41.106Z,101765.84
2018-07-15T15:29:08.814Z,101764.63
2018-07-15T15:31:37.191Z,101765.95
2018-07-15T15:34:04.893Z,101758.98
2018-07-15T15:36:32.568Z,101755.56
2018-07-15T15:39:00.592Z,101757.44
2018-07-15T15:41:28.221Z,101756.17
2018-07-15T15:43:55.926Z,101752.01
2018-07-15T15:46:23.833Z,101744.70
2018-07-15T15:48:51.770Z,101742.66
2018-07-15T15:51:21.413Z,101740.61
2018-07-15T15:53:49.088Z,101736.83
2018-07-15T15:56:16.724Z,101738.16
2018-07-15T15:58:44.424Z,101735.95
2018-07-15T16:01:12.158Z,101732.64
2018-07-15T16:03:39.848Z,101725.69
2018-07-15T16:06:07.489Z,101719.36
2018-07-15T16:08:35.807Z,101712.88
2018-07-15T16:11:04.105Z,101717.77
2018-07-15T16:13:32.042Z,101716.35
2018-07-15T16:15:59.964Z,101719.52
2018-07-15T16:18:27.890Z,101718.02
2018-07-15T16:20:55.824Z,101714.34
2018-07-15T16:23:23.951Z,101710.75
2018-07-15T16:25:52.032Z,101706.86
2018-07-15T16:28:19.995Z,101700.61
2018-07-15T16:30:47.591Z,101701.73
2018-07-15T16:33:15.249Z,101700.39
2018-07-15T16:35:43.218Z,101697.89
2018-07-15T16:38:11.170Z,101697.95
2018-07-15T16:40:39.065Z,101687.14
2018-07-15T16:43:07.052Z,101686.01
2018-07-15T16:45:35.038Z,101685.34
2018-07-15T16:48:02.725Z,101686.06
2018-07-15T16:50:30.705Z,101677.87
2018-07-15T16:52:58.340Z,101685.32
2018-07-15T16:55:26.016Z,101682.52
2018-07-15T16:57:53.678Z,101681.91
2018-07-15T17:00:21.643Z,101678.84
2018-07-15T17:02:49.581Z,101685.18
2018-07-15T17:05:17.565Z,101682.45
2018-07-15T17:07:45.567Z,101682.62
2018-07-15T17:10:13.246Z,101684.20
2018-07-15T17:12:41.321Z,101683.83
2018-07-15T17:15:09.108Z,101682.74
2018-07-15T17:17:36.779Z,101678.15
2018-07-15T17:20:04.586Z,101673.98
2018-07-15T17:22:32.349Z,101678.95
2018-07-15T17:25:00.028Z,101673.38
2018-07-15T17:27:28.013Z,101675.27
2018-07-15T17:29:56.721Z,101677.11
2018-07-15T17:32:24.719Z,101672.33
2018-07-15T17:34:52.431Z,101680.42
2018-07-15T17:37:20.099Z,101675.78
2018-07-15T17:39:48.145Z,101681.42
2018-07-15T17:42:15.888Z,101678.61
2018-07-15T17:44:44.315Z,101676.33
2018-07-15T17:47:12.255Z,101684.33
2018-07-15T17:49:39.937Z,101681.20
2018-07-15T17:52:07.671Z,101682.84
2018-07-15T17:54:35.632Z,101679.77
2018-07-15T17:57:03.801Z,101679.30
2018-07-15T17:59:31.738Z,101674.44
2018-07-15T18:01:59.906Z,101676.19
2018-07-15T18:04:27.851Z,101684.18
2018-07-15T18:06:55.519Z,101685.66
2018-07-15T18:09:23.137Z,101682.69
2018-07-15T18:11:51.471Z,101686.37
2018-07-15T18:14:19.192Z,101688.23
2018-07-15T18:16:46.836Z,101688.87
2018-07-15T18:19:14.476Z,101690.34
2018-07-15T18:21:42.106Z,101689.20
2018-07-15T18:24:09.974Z,101690.22
2018-07-15T18:26:37.935Z,101690.05
2018-07-15T18:29:05.617Z,101691.56
2018-07-15T18:31:33.261Z,101691.81
2018-07-15T18:34:01.134Z,101689.84
2018-07-15T18:36:29.161Z,101692.27
2018-07-15T18:38:56.901Z,101699.20
2018-07-15T18:41:24.554Z,101697.31
2018-07-15T18:43:52.576Z,101694.89
2018-07-15T18:46:20.230Z,101699.10
2018-07-15T18:48:47.838Z,101693.45
2018-07-15T18:51:15.510Z,101707.14
2018-07-15T18:53:43.217Z,101703.91
2018-07-15T18:56:10.862Z,101702.02
2018-07-15T18:58:38.558Z,101704.45
2018-07-15T19:01:06.421Z,101699.89
2018-07-15T19:03:34.155Z,101701.10
2018-07-15T19:06:02.152Z,101703.18
2018-07-15T19:08:30.122Z,101706.59
2018-07-15T19:10:57.856Z,101690.16
2018-07-15T19:13:25.765Z,101715.29
2018-07-15T19:15:53.771Z,101710.61
2018-07-15T19:18:21.584Z,101720.28
2018-07-15T19:20:49.234Z,101716.94
2018-07-15T19:23:17.077Z,101719.67
2018-07-15T19:25:44.771Z,101717.02
2018-07-15T19:28:12.813Z,101722.69
2018-07-15T19:30:40.557Z,101719.88
2018-07-15T19:33:08.666Z,101721.92
2018-07-15T19:35:36.670Z,101727.07
2018-07-15T19:38:04.493Z,101725.13
2018-07-15T19:40:32.543Z,101729.38
2018-07-15T19:43:00.619Z,101733.55
2018-07-15T19:45:28.376Z,101732.94
2018-07-15T19:47:56.383Z,101738.02
2018-07-15T19:50:24.524Z,101734.26
2018-07-15T19:52:52.658Z,101737.11
2018-07-15T19:55:20.600Z,101739.05
2018-07-15T19:57:48.753Z,101737.02
2018-07-15T20:00:16.568Z,101740.31
2018-07-15T20:02:44.520Z,101751.06
2018-07-15T20:05:12.362Z,101745.47
2018-07-15T20:07:40.693Z,101748.63
2018-07-15T20:10:08.641Z,101742.23
2018-07-15T20:12:37.064Z,101744.59
2018-07-15T20:15:05.060Z,101736.41
2018-07-15T20:17:33.021Z,101738.31
2018-07-15T20:20:01.250Z,101742.40
2018-07-15T20:22:28.913Z,101747.36
2018-07-15T20:24:56.601Z,101736.91
2018-07-15T20:27:24.597Z,101748.05
2018-07-15T20:29:52.254Z,101741.95
2018-07-15T20:32:19.980Z,101742.98
2018-07-15T20:34:48.333Z,101736.05
2018-07-15T20:37:16.260Z,101740.53
2018-07-15T20:39:44.117Z,101744.66
2018-07-15T20:42:12.097Z,101746.13
2018-07-15T20:44:40.026Z,101745.83
2018-07-15T20:47:07.729Z,101746.86
2018-07-15T20:49:35.426Z,101754.46
2018-07-15T20:52:03.154Z,101754.11
2018-07-15T20:54:30.898Z,101753.77
2018-07-15T20:56:58.534Z,101747.72
2018-07-15T20:59:26.792Z,101751.39
2018-07-15T21:01:54.982Z,101748.39
2018-07-15T21:04:22.890Z,101752.01
2018-07-15T21:06:51.129Z,101748.13
2018-07-15T21:09:18.802Z,101750.38
2018-07-15T21:11:46.829Z,101750.88
2018-07-15T21:14:15.070Z,101751.41
2018-07-15T21:16:42.705Z,101747.92
2018-07-15T21:19:10.514Z,101754.14
2018-07-15T21:21:38.132Z,101757.32
2018-07-15T21:24:05.875Z,101751.23
2018-07-15T21:26:33.542Z,101754.81
2018-07-15T21:29:01.354Z,101758.44
2018-07-15T21:31:29.071Z,101758.08
2018-07-15T21:33:56.773Z,101761.17
2018-07-15T21:36:24.779Z,101761.30
2018-07-15T21:38:52.381Z,101760.06
2018-07-15T21:41:20.641Z,101770.18
2018-07-15T21:43:48.688Z,101766.69
2018-07-15T21:46:16.701Z,101766.33
2018-07-15T21:48:44.757Z,101756.25
2018-07-15T21:51:12.405Z,101759.81
2018-07-15T21:53:40.102Z,101762.98
2018-07-15T21:56:08.348Z,101764.36
2018-07-15T21:58:35.982Z,101769.25
2018-07-15T22:01:03.695Z,101771.06
2018-07-15T22:03:31.391Z,101771.98
2018-07-15T22:05:59.590Z,101769.38
2018-07-15T22:08:42.287Z,101768.98
2018-07-15T22:11:09.983Z,101773.00
2018-07-15T22:13:37.902Z,101769.47
2018-07-15T22:16:05.918Z,101777.02
2018-07-15T22:18:33.592Z,101775.29
2018-07-15T22:21:01.242Z,101774.48
2018-07-15T22:23:29.143Z,101774.22
2018-07-15T22:25:56.827Z,101774.66
2018-07-15T22:28:24.507Z,101772.50
2018-07-15T22:30:52.213Z,101769.45
2018-07-15T22:33:20.161Z,101771.66
2018-07-15T22:35:48.437Z,101772.11
2018-07-15T22:38:16.065Z,101765.61
2018-07-15T22:40:43.741Z,101766.97
2018-07-15T22:43:11.442Z,101770.98
2018-07-15T22:45:39.367Z,101738.98
2018-07-15T22:48:07.546Z,101765.42
2018-07-15T22:50:35.274Z,101767.66
2018-07-15T22:53:03.301Z,101769.95
2018-07-15T22:55:30.988Z,101763.83
2018-07-15T22:57:58.743Z,101771.77
2018-07-15T23:00:26.397Z,101760.38
2018-07-15T23:02:54.097Z,101763.95
2018-07-15T23:05:37.397Z,101762.27
2018-07-15T23:08:06.141Z,101768.87
2018-07-15T23:10:34.715Z,101765.75
2018-07-15T23:13:03.459Z,101764.47
2018-07-15T23:15:31.661Z,101762.34
2018-07-15T23:18:00.042Z,101768.04
2018-07-15T23:20:28.652Z,101759.34
2018-07-15T23:22:56.491Z,101760.66
2018-07-15T23:25:24.666Z,101755.37
2018-07-15T23:27:52.705Z,101751.41
2018-07-15T23:30:20.351Z,101748.80
2018-07-15T23:32:48.047Z,101748.40
2018-07-15T23:35:15.684Z,101748.05
2018-07-15T23:37:43.374Z,101746.76
2018-07-15T23:40:11.064Z,101746.31
2018-07-15T23:42:39.245Z,101747.20
2018-07-15T23:45:07.120Z,101744.16
2018-07-15T23:47:35.660Z,101744.20
2018-07-15T23:50:03.340Z,101747.32
2018-07-15T23:52:31.374Z,101745.56
2018-07-15T23:54:59.437Z,101740.76
2018-07-15T23:57:27.114Z,101743.89
2018-07-15T23:59:55.201Z,101743.89
